createdAt,value
2022-11-02T00:01:20.327Z,2.37
2022-11-02T00:03:48.499Z,2.77
2022-11-02T00:06:16.210Z,2.13
2022-11-02T00:08:43.858Z,1.95
2022-11-02T00:11:11.510Z,2.60
2022-11-02T00:13:40.561Z,2.50
2022-11-02T00:16:12.821Z,2.40
2022-11-02T00:18:40.749Z,2.67
2022-11-02T00:21:08.471Z,1.88
2022-11-02T00:23:36.111Z,2.35
2022-11-02T00:26:04.180Z,2.47
2022-11-02T00:28:32.061Z,2.80
2022-11-02T00:31:01.016Z,2.55
2022-11-02T00:33:28.720Z,2.67
2022-11-02T00:35:57.080Z,2.20
2022-11-02T00:38:24.748Z,2.42
2022-11-02T00:40:52.388Z,2.40
2022-11-02T00:43:20.051Z,2.70
2022-11-02T00:45:47.682Z,2.47
2022-11-02T00:48:16.749Z,3.03
2022-11-02T00:50:44.413Z,2.50
2022-11-02T00:53:12.099Z,3.10
2022-11-02T00:55:39.727Z,2.30
2022-11-02T00:58:07.753Z,2.40
2022-11-02T01:00:35.619Z,2.75
2022-11-02T01:03:03.661Z,2.80
2022-11-02T01:05:32.674Z,2.53
2022-11-02T01:08:00.428Z,2.50
2022-11-02T01:10:28.519Z,2.35
2022-11-02T01:12:56.168Z,3.00
2022-11-02T01:15:23.873Z,2.20
2022-11-02T01:17:51.489Z,2.30
2022-11-02T01:20:19.268Z,2.10
2022-11-02T01:22:48.263Z,2.65
2022-11-02T01:25:15.940Z,2.60
2022-11-02T01:27:43.585Z,2.40
2022-11-02T01:30:12.545Z,2.43
2022-11-02T01:32:40.260Z,2.40
2022-11-02T01:35:08.401Z,1.90
2022-11-02T01:37:36.204Z,2.53
2022-11-02T01:40:06.106Z,2.00
2022-11-02T01:42:33.831Z,2.27
2022-11-02T01:45:01.517Z,1.87
2022-11-02T01:47:31.845Z,3.30
2022-11-02T01:50:08.747Z,2.27
2022-11-02T01:52:38.683Z,2.10
2022-11-02T01:55:12.939Z,1.70
2022-11-02T01:57:43.044Z,2.07
2022-11-02T02:00:13.698Z,2.00
2022-11-02T02:02:45.621Z,2.13
2022-11-02T02:05:15.415Z,2.27
2022-11-02T02:07:43.469Z,2.37
2022-11-02T02:10:12.840Z,2.20
2022-11-02T02:12:43.481Z,2.23
2022-11-02T02:15:12.631Z,2.43
2022-11-02T02:17:47.832Z,2.03
2022-11-02T02:20:27.288Z,2.33
2022-11-02T02:23:31.057Z,2.00
2022-11-02T02:26:39.066Z,2.40
2022-11-02T02:29:12.695Z,1.90
2022-11-02T02:31:46.053Z,2.40
2022-11-02T02:34:18.655Z,1.60
2022-11-02T02:36:51.949Z,2.40
2022-11-02T02:39:25.070Z,2.20
2022-11-02T02:41:59.413Z,2.30
2022-11-02T02:44:32.778Z,2.47
2022-11-02T02:47:03.303Z,2.40
2022-11-02T02:49:38.462Z,2.43
2022-11-02T02:52:07.293Z,2.80
2022-11-02T02:54:39.851Z,1.83
2022-11-02T02:57:12.142Z,2.40
2022-11-02T02:59:43.822Z,1.60
2022-11-02T03:02:17.586Z,2.73
2022-11-02T03:04:45.342Z,1.80
2022-11-02T03:07:16.361Z,1.90
2022-11-02T03:09:50.843Z,1.97
2022-11-02T03:12:28.225Z,2.27
2022-11-02T03:15:10.363Z,1.80
2022-11-02T03:17:47.830Z,2.00
2022-11-02T03:20:23.900Z,2.03
2022-11-02T03:22:59.005Z,1.80
2022-11-02T03:25:31.713Z,2.23
2022-11-02T03:28:07.617Z,2.70
2022-11-02T03:30:43.862Z,1.77
2022-11-02T03:33:20.005Z,1.60
2022-11-02T03:35:53.134Z,1.87
2022-11-02T03:38:25.404Z,1.70
2022-11-02T03:40:56.860Z,1.87
2022-11-02T03:43:26.011Z,2.07
2022-11-02T03:45:57.881Z,1.67
2022-11-02T03:48:31.304Z,2.30
2022-11-02T03:51:03.981Z,2.23
2022-11-02T03:53:38.887Z,1.90
2022-11-02T03:56:11.286Z,1.93
2022-11-02T03:58:39.132Z,1.70
2022-11-02T04:01:09.371Z,1.70
2022-11-02T04:03:42.230Z,1.90
2022-11-02T04:06:10.199Z,1.87
2022-11-02T04:08:40.621Z,1.80
2022-11-02T04:11:26.679Z,1.97
2022-11-02T04:14:12.192Z,2.00
2022-11-02T04:16:41.406Z,1.70
2022-11-02T04:19:27.499Z,2.00
2022-11-02T04:22:13.337Z,2.10
2022-11-02T04:24:58.724Z,2.30
2022-11-02T04:27:27.295Z,2.53
2022-11-02T04:29:54.973Z,2.17
2022-11-02T04:32:37.886Z,2.10
2022-11-02T04:35:06.169Z,1.50
2022-11-02T04:37:56.896Z,2.10
2022-11-02T04:40:24.543Z,2.00
2022-11-02T04:42:52.217Z,2.10
2022-11-02T04:45:20.332Z,1.67
2022-11-02T04:47:49.399Z,2.20
2022-11-02T04:50:17.105Z,2.00
2022-11-02T04:52:44.742Z,2.13
2022-11-02T04:55:12.834Z,2.50
2022-11-02T04:57:45.093Z,2.10
2022-11-02T05:00:14.038Z,2.23
2022-11-02T05:02:41.761Z,1.93
2022-11-02T05:05:12.501Z,1.73
2022-11-02T05:07:40.137Z,1.80
2022-11-02T05:10:08.634Z,2.43
2022-11-02T05:12:36.315Z,2.00
2022-11-02T05:15:04.790Z,2.03
2022-11-02T05:17:32.582Z,2.30
2022-11-02T05:20:00.630Z,2.03
2022-11-02T05:22:29.586Z,2.17
2022-11-02T05:24:57.361Z,1.77
2022-11-02T05:27:25.012Z,2.13
2022-11-02T05:29:52.671Z,2.40
2022-11-02T05:32:20.440Z,1.77
2022-11-02T05:34:48.024Z,2.80
2022-11-02T05:37:15.725Z,4.70
2022-11-02T05:39:47.863Z,2.27
2022-11-02T05:42:18.056Z,2.20
2022-11-02T05:44:45.710Z,2.33
2022-11-02T05:47:13.400Z,2.03
2022-11-02T05:49:41.047Z,1.80
2022-11-02T05:52:08.770Z,2.07
2022-11-02T05:54:36.425Z,1.97
2022-11-02T05:57:05.489Z,1.93
2022-11-02T05:59:33.172Z,2.30
2022-11-02T06:02:00.934Z,2.07
2022-11-02T06:04:28.721Z,2.17
2022-11-02T06:06:58.011Z,1.97
2022-11-02T06:09:25.693Z,2.10
2022-11-02T06:11:53.390Z,1.93
2022-11-02T06:14:22.398Z,2.10
2022-11-02T06:16:50.046Z,1.83
2022-11-02T06:19:17.851Z,2.00
2022-11-02T06:21:48.315Z,1.87
2022-11-02T06:24:16.652Z,1.97
2022-11-02T06:26:44.374Z,2.27
2022-11-02T06:29:12.079Z,2.43
2022-11-02T06:31:41.154Z,2.40
2022-11-02T06:34:08.869Z,2.10
2022-11-02T06:36:36.669Z,2.10
2022-11-02T06:39:04.462Z,1.80
2022-11-02T06:41:32.141Z,1.50
2022-11-02T06:44:00.298Z,1.80
2022-11-02T06:46:28.062Z,1.83
2022-11-02T06:48:57.213Z,2.43
2022-11-02T06:51:30.903Z,1.70
2022-11-02T06:53:58.756Z,1.93
2022-11-02T06:56:26.547Z,2.17
2022-11-02T06:58:54.491Z,4.20
2022-11-02T07:01:22.526Z,2.60
2022-11-02T07:03:50.434Z,3.70
2022-11-02T07:06:20.016Z,4.17
2022-11-02T07:08:47.644Z,3.50
2022-11-02T07:11:16.270Z,1.87
2022-11-02T07:13:44.534Z,4.30
2022-11-02T07:16:12.577Z,2.33
2022-11-02T07:18:40.252Z,3.20
2022-11-02T07:21:10.412Z,2.60
2022-11-02T07:23:40.013Z,2.27
2022-11-02T07:26:07.750Z,2.50
2022-11-02T07:28:36.835Z,2.20
2022-11-02T07:31:05.379Z,2.90
2022-11-02T07:33:33.228Z,2.17
2022-11-02T07:36:03.789Z,2.07
2022-11-02T07:38:31.457Z,2.13
2022-11-02T07:41:00.522Z,2.10
2022-11-02T07:43:28.835Z,2.40
2022-11-02T07:45:56.540Z,2.70
2022-11-02T07:48:24.196Z,2.20
2022-11-02T07:50:51.892Z,2.70
2022-11-02T07:53:19.551Z,1.87
2022-11-02T07:55:47.187Z,2.30
2022-11-02T07:58:16.314Z,2.43
2022-11-02T08:00:44.182Z,2.47
2022-11-02T08:03:12.905Z,2.57
2022-11-02T08:05:42.792Z,4.80
2022-11-02T08:08:13.321Z,4.37
2022-11-02T08:10:42.135Z,5.10
2022-11-02T08:13:11.083Z,6.47
2022-11-02T08:15:40.451Z,5.40
2022-11-02T08:18:10.640Z,4.37
2022-11-02T08:20:38.345Z,4.73
2022-11-02T08:23:07.547Z,3.57
2022-11-02T08:25:37.496Z,4.37
2022-11-02T08:28:06.696Z,3.97
2022-11-02T08:30:35.056Z,5.17
2022-11-02T08:33:06.088Z,4.93
2022-11-02T08:35:34.797Z,3.80
2022-11-02T08:38:03.302Z,4.13
2022-11-02T08:40:31.835Z,11.03
2022-11-02T08:43:00.364Z,4.77
2022-11-02T08:45:28.534Z,4.80
2022-11-02T08:47:56.712Z,5.20
2022-11-02T08:50:28.055Z,4.60
2022-11-02T08:52:55.936Z,3.73
2022-11-02T08:55:23.770Z,3.57
2022-11-02T08:57:53.024Z,3.50
2022-11-02T09:00:22.405Z,2.40
2022-11-02T09:03:00.685Z,2.90
2022-11-02T09:05:30.893Z,2.30
2022-11-02T09:08:00.357Z,2.70
2022-11-02T09:10:29.299Z,4.00
2022-11-02T09:12:57.515Z,3.37
2022-11-02T09:15:25.206Z,3.30
2022-11-02T09:17:52.952Z,2.37
2022-11-02T09:20:22.144Z,3.60
2022-11-02T09:22:51.358Z,3.00
2022-11-02T09:25:20.194Z,3.00
2022-11-02T09:27:50.432Z,2.47
2022-11-02T09:30:22.652Z,2.43
2022-11-02T09:32:55.217Z,2.30
2022-11-02T09:35:23.196Z,4.50
2022-11-02T09:37:52.289Z,2.37
2022-11-02T09:40:23.058Z,2.93
2022-11-02T09:43:02.727Z,2.77
2022-11-02T09:45:34.838Z,2.80
2022-11-02T09:48:27.843Z,3.20
2022-11-02T09:51:02.099Z,3.60
2022-11-02T09:53:40.716Z,3.00
2022-11-02T09:56:10.037Z,2.53
2022-11-02T09:58:40.498Z,2.70
2022-11-02T10:01:25.104Z,2.33
2022-11-02T10:04:15.877Z,2.67
2022-11-02T10:06:51.695Z,1.90
2022-11-02T10:09:27.438Z,3.27
2022-11-02T10:12:03.640Z,2.00
2022-11-02T10:14:34.306Z,2.20
2022-11-02T10:17:12.832Z,1.97
2022-11-02T10:19:45.782Z,2.90
2022-11-02T10:22:16.954Z,3.33
2022-11-02T10:24:48.022Z,2.83
2022-11-02T10:27:23.567Z,4.80
2022-11-02T10:29:59.117Z,2.57
2022-11-02T10:32:26.819Z,2.93
2022-11-02T10:34:59.131Z,2.40
2022-11-02T10:37:47.666Z,2.27
2022-11-02T10:40:29.391Z,3.47
2022-11-02T10:43:07.678Z,2.63
2022-11-02T10:45:53.423Z,3.03
2022-11-02T10:48:35.616Z,2.80
2022-11-02T10:51:09.643Z,2.30
2022-11-02T10:53:42.089Z,2.50
2022-11-02T10:56:20.653Z,2.77
2022-11-02T10:58:56.973Z,3.33
2022-11-02T11:01:24.901Z,2.00
2022-11-02T11:03:58.819Z,2.43
2022-11-02T11:06:29.822Z,3.00
2022-11-02T11:09:02.446Z,1.97
2022-11-02T11:11:33.120Z,2.60
2022-11-02T11:16:55.482Z,1.90
2022-11-02T11:19:42.082Z,2.60
2022-11-02T11:22:28.112Z,2.43
2022-11-02T11:25:24.430Z,2.60
2022-11-02T11:27:57.836Z,2.30
2022-11-02T11:30:54.149Z,2.53
2022-11-02T11:33:18.401Z,2.40
2022-11-02T11:35:50.606Z,2.00
2022-11-02T11:38:21.086Z,2.80
2022-11-02T11:40:53.891Z,1.83
2022-11-02T11:43:25.629Z,2.20
2022-11-02T11:46:04.862Z,2.70
2022-11-02T11:48:38.995Z,2.10
2022-11-02T11:51:26.429Z,2.10
2022-11-02T11:54:22.951Z,1.60
2022-11-02T11:56:52.443Z,2.43
2022-11-02T11:59:31.529Z,1.40
2022-11-02T12:02:01.111Z,1.50
2022-11-02T12:04:31.339Z,1.90
2022-11-02T12:07:25.103Z,1.80
2022-11-02T12:10:05.126Z,3.10
2022-11-02T12:12:51.548Z,1.90
2022-11-02T12:15:37.336Z,3.30
2022-11-02T12:18:17.991Z,3.00
2022-11-02T12:21:00.470Z,2.97
2022-11-02T12:24:05.728Z,1.60
2022-11-02T12:26:47.208Z,2.27
2022-11-02T12:29:36.773Z,2.03
2022-11-02T12:32:14.182Z,1.83
2022-11-02T12:35:27.889Z,1.60
2022-11-02T12:38:12.812Z,2.83
2022-11-02T12:40:50.753Z,2.37
2022-11-02T12:43:33.024Z,2.03
2022-11-02T12:46:05.052Z,2.10
2022-11-02T12:48:43.467Z,2.20
2022-11-02T12:51:15.978Z,2.00
2022-11-02T12:53:49.928Z,2.10
2022-11-02T12:56:22.087Z,2.13
2022-11-02T12:58:50.525Z,2.00
2022-11-02T13:01:26.140Z,1.70
2022-11-02T13:04:02.114Z,1.80
2022-11-02T13:06:35.825Z,1.60
2022-11-02T13:09:08.455Z,1.97
2022-11-02T13:11:40.051Z,1.87
2022-11-02T13:14:15.523Z,2.07
2022-11-02T13:16:50.014Z,2.20
2022-11-02T13:19:23.146Z,2.70
2022-11-02T13:21:55.220Z,2.13
2022-11-02T13:24:31.730Z,1.67
2022-11-02T13:27:14.675Z,1.27
2022-11-02T13:29:51.162Z,1.83
2022-11-02T13:32:29.662Z,2.20
2022-11-02T13:35:07.593Z,1.77
2022-11-02T13:37:39.311Z,1.63
2022-11-02T13:40:15.330Z,1.60
2022-11-02T13:43:18.029Z,1.97
2022-11-02T13:46:06.651Z,2.00
2022-11-02T13:48:49.390Z,2.17
2022-11-02T13:51:27.039Z,1.87
2022-11-02T13:54:00.516Z,2.07
2022-11-02T13:56:30.375Z,1.90
2022-11-02T13:59:05.054Z,2.13
2022-11-02T14:01:36.357Z,1.57
2022-11-02T14:04:07.330Z,1.57
2022-11-02T14:06:48.742Z,2.10
2022-11-02T14:09:28.151Z,2.23
2022-11-02T14:12:29.004Z,2.03
2022-11-02T14:15:38.266Z,1.73
2022-11-02T14:18:14.416Z,3.40
2022-11-02T14:20:44.262Z,2.67
2022-11-02T14:23:41.539Z,2.87
2022-11-02T14:26:31.880Z,2.70
2022-11-02T14:28:59.905Z,2.07
2022-11-02T14:31:45.312Z,2.10
2022-11-02T14:34:29.666Z,2.57
2022-11-02T14:37:18.826Z,2.23
2022-11-02T14:39:59.946Z,2.87
2022-11-02T14:42:48.805Z,2.20
2022-11-02T14:45:45.341Z,2.43
2022-11-02T14:48:17.242Z,2.47
2022-11-02T14:50:58.137Z,2.47
2022-11-02T14:53:28.809Z,2.30
2022-11-02T14:55:58.248Z,2.87
2022-11-02T14:58:32.624Z,2.30
2022-11-02T15:01:03.122Z,2.40
2022-11-02T15:03:35.894Z,2.67
2022-11-02T15:06:06.186Z,3.20
2022-11-02T15:08:37.500Z,2.97
2022-11-02T15:11:42.562Z,2.40
2022-11-02T15:14:53.233Z,2.40
2022-11-02T15:17:59.699Z,3.00
2022-11-02T15:20:31.304Z,3.93
2022-11-02T15:23:09.725Z,3.63
2022-11-02T15:25:41.591Z,4.07
2022-11-02T15:28:14.451Z,3.27
2022-11-02T15:30:45.697Z,4.07
2022-11-02T15:33:23.958Z,4.10
2022-11-02T15:35:54.456Z,2.40
2022-11-02T15:38:33.783Z,3.20
2022-11-02T15:41:14.728Z,2.77
2022-11-02T15:44:03.535Z,2.60
2022-11-02T15:46:45.152Z,3.17
2022-11-02T15:49:25.670Z,3.17
2022-11-02T15:52:04.016Z,2.50
2022-11-02T15:54:49.358Z,3.43
2022-11-02T15:57:30.438Z,2.77
2022-11-02T16:00:15.493Z,3.00
2022-11-02T16:02:48.601Z,2.33
2022-11-02T16:05:23.662Z,2.97
2022-11-02T16:10:41.352Z,4.13
2022-11-02T16:13:16.879Z,2.97
2022-11-02T16:15:45.323Z,3.47
2022-11-02T16:18:29.131Z,3.47
2022-11-02T16:21:00.517Z,3.63
2022-11-02T16:23:30.050Z,2.90
2022-11-02T16:25:59.753Z,3.33
2022-11-02T16:28:30.266Z,2.80
2022-11-02T16:31:08.693Z,3.20
2022-11-02T16:33:45.415Z,3.43
2022-11-02T16:36:16.686Z,5.00
2022-11-02T16:38:48.446Z,3.37
2022-11-02T16:41:17.327Z,4.00
2022-11-02T16:43:47.133Z,3.80
2022-11-02T16:46:17.365Z,3.10
2022-11-02T16:51:38.536Z,3.27
2022-11-02T16:54:39.287Z,3.97
2022-11-02T16:57:12.633Z,3.73
2022-11-02T16:59:51.322Z,4.27
2022-11-02T17:02:19.857Z,3.97
2022-11-02T17:04:48.690Z,3.60
2022-11-02T17:07:23.382Z,4.40
2022-11-02T17:09:54.415Z,4.37
2022-11-02T17:12:30.045Z,3.87
2022-11-02T17:14:58.942Z,4.90
2022-11-02T17:17:37.585Z,4.60
2022-11-02T17:20:18.493Z,5.20
2022-11-02T17:22:57.218Z,4.17
2022-11-02T17:25:27.553Z,4.83
2022-11-02T17:27:56.837Z,5.33
2022-11-02T17:30:44.402Z,4.50
2022-11-02T17:33:22.946Z,5.00
2022-11-02T17:35:52.333Z,5.67
2022-11-02T17:38:24.669Z,6.10
2022-11-02T17:40:53.666Z,4.20
2022-11-02T17:43:21.795Z,4.67
2022-11-02T17:45:56.401Z,3.60
2022-11-02T17:48:26.216Z,4.40
2022-11-02T17:50:56.045Z,3.90
2022-11-02T17:53:25.367Z,4.57
2022-11-02T17:55:53.843Z,4.63
2022-11-02T17:58:21.631Z,5.30
2022-11-02T18:00:49.531Z,4.10
2022-11-02T18:03:20.179Z,4.40
2022-11-02T18:05:50.960Z,5.03
2022-11-02T18:08:20.405Z,4.83
2022-11-02T18:10:52.841Z,6.30
2022-11-02T18:13:22.012Z,7.63
2022-11-02T18:15:50.661Z,8.17
2022-11-02T18:18:18.283Z,16.67
2022-11-02T18:20:45.927Z,9.70
2022-11-02T18:23:16.846Z,7.10
2022-11-02T18:25:44.717Z,6.10
2022-11-02T18:28:14.457Z,5.20
2022-11-02T18:30:44.164Z,6.20
2022-11-02T18:33:13.648Z,6.40
2022-11-02T18:35:43.126Z,5.20
2022-11-02T18:38:11.561Z,6.03
2022-11-02T18:40:39.571Z,6.00
2022-11-02T18:43:07.759Z,5.47
2022-11-02T18:45:37.173Z,6.73
2022-11-02T18:48:09.256Z,5.70
2022-11-02T18:50:37.172Z,5.97
2022-11-02T18:53:04.809Z,6.33
2022-11-02T18:55:32.542Z,6.50
2022-11-02T18:58:00.276Z,6.80
2022-11-02T19:00:28.135Z,5.70
2022-11-02T19:02:57.167Z,6.40
2022-11-02T19:05:42.731Z,5.77
2022-11-02T19:08:28.487Z,6.23
2022-11-02T19:10:56.641Z,5.80
2022-11-02T19:13:27.133Z,5.53
2022-11-02T19:15:56.204Z,6.00
2022-11-02T19:18:25.383Z,5.87
2022-11-02T19:20:53.067Z,5.40
2022-11-02T19:23:21.366Z,5.20
2022-11-02T19:25:52.559Z,5.27
2022-11-02T19:28:20.471Z,6.03
2022-11-02T19:30:48.128Z,5.70
2022-11-02T19:33:15.791Z,5.87
2022-11-02T19:35:54.782Z,5.13
2022-11-02T19:38:22.696Z,6.00
2022-11-02T19:41:00.772Z,5.50
2022-11-02T19:43:28.465Z,5.57
2022-11-02T19:46:00.788Z,5.95
2022-11-02T19:48:28.653Z,6.13
2022-11-02T19:50:57.833Z,6.33
2022-11-02T19:53:29.838Z,5.63
2022-11-02T19:55:57.449Z,6.80
2022-11-02T19:58:25.180Z,6.03
2022-11-02T20:00:52.867Z,6.30
2022-11-02T20:03:20.664Z,6.63
2022-11-02T20:05:48.459Z,6.70
2022-11-02T20:08:17.749Z,7.43
2022-11-02T20:10:45.390Z,7.77
2022-11-02T20:13:13.291Z,7.13
2022-11-02T20:15:41.025Z,8.47
2022-11-02T20:18:18.879Z,7.97
2022-11-02T20:20:47.758Z,7.23
2022-11-02T20:23:16.832Z,6.78
2022-11-02T20:25:44.491Z,7.75
2022-11-02T20:28:12.235Z,7.23
2022-11-02T20:30:41.936Z,6.90
2022-11-02T20:33:09.634Z,7.90
2022-11-02T20:35:38.929Z,6.93
2022-11-02T20:38:07.037Z,7.57
2022-11-02T20:40:40.997Z,7.15
2022-11-02T20:43:08.951Z,6.75
2022-11-02T20:45:36.846Z,7.13
2022-11-02T20:48:05.368Z,6.20
2022-11-02T20:50:33.738Z,6.47
2022-11-02T20:53:01.416Z,6.95
2022-11-02T20:55:29.116Z,6.20
2022-11-02T20:57:58.142Z,6.30
2022-11-02T21:00:26.555Z,5.95
2022-11-02T21:02:54.223Z,6.90
2022-11-02T21:05:21.877Z,6.78
2022-11-02T21:07:51.821Z,5.50
2022-11-02T21:10:20.140Z,6.60
2022-11-02T21:13:05.577Z,6.40
2022-11-02T21:15:37.013Z,6.25
2022-11-02T21:18:05.032Z,5.90
2022-11-02T21:20:34.890Z,6.63
2022-11-02T21:23:02.964Z,7.07
2022-11-02T21:25:31.919Z,6.97
2022-11-02T21:27:59.922Z,7.10
2022-11-02T21:30:27.937Z,6.78
2022-11-02T21:32:57.059Z,6.90
2022-11-02T21:35:25.234Z,6.60
2022-11-02T21:37:56.674Z,6.93
2022-11-02T21:40:24.577Z,6.88
2022-11-02T21:42:52.408Z,7.07
2022-11-02T21:45:23.861Z,6.55
2022-11-02T21:47:53.733Z,7.03
2022-11-02T21:50:22.771Z,7.10
2022-11-02T21:52:50.541Z,7.00
2022-11-02T21:55:18.327Z,7.28
2022-11-02T21:57:46.058Z,6.80
2022-11-02T22:00:14.642Z,6.60
2022-11-02T22:02:41.419Z,7.95
2022-11-02T22:05:29.372Z,6.75
2022-11-02T22:08:16.115Z,7.20
2022-11-02T22:10:44.060Z,7.22
2022-11-02T22:13:29.500Z,6.43
2022-11-02T22:15:57.360Z,7.05
2022-11-02T22:18:25.153Z,6.45
2022-11-02T22:20:56.642Z,6.30
2022-11-02T22:23:26.905Z,6.40
2022-11-02T22:25:59.400Z,7.68
2022-11-02T22:28:30.495Z,7.50
2022-11-02T22:30:58.753Z,6.60
2022-11-02T22:33:27.184Z,6.20
2022-11-02T22:35:55.065Z,7.70
2022-11-02T22:38:39.651Z,5.65
2022-11-02T22:41:08.810Z,6.30
2022-11-02T22:43:36.774Z,6.15
2022-11-02T22:46:06.382Z,5.55
2022-11-02T22:48:34.778Z,7.00
2022-11-02T22:51:04.203Z,5.85
2022-11-02T22:53:32.010Z,6.75
2022-11-02T22:56:01.590Z,5.82
2022-11-02T22:58:32.830Z,6.10
2022-11-02T23:01:01.334Z,5.68
2022-11-02T23:03:32.043Z,6.35
2022-11-02T23:05:59.765Z,6.45
2022-11-02T23:08:28.463Z,6.40
2022-11-02T23:11:14.308Z,6.50
2022-11-02T23:13:44.537Z,6.60
2022-11-02T23:16:23.003Z,7.25
2022-11-02T23:19:11.170Z,7.05
2022-11-02T23:21:40.193Z,6.50
2022-11-02T23:24:26.639Z,6.40
2022-11-02T23:26:54.911Z,5.80
2022-11-02T23:29:41.713Z,6.25
2022-11-02T23:32:27.892Z,7.15
2022-11-02T23:35:14.836Z,6.50
2022-11-02T23:37:43.439Z,7.13
2022-11-02T23:40:13.159Z,6.50
2022-11-02T23:42:41.000Z,6.80
2022-11-02T23:45:11.750Z,6.38
2022-11-02T23:47:57.920Z,6.85
2022-11-02T23:50:53.816Z,7.10
2022-11-02T23:53:41.260Z,7.40
2022-11-02T23:56:38.168Z,6.90
2022-11-02T23:59:08.929Z,7.75
